sensor_id;sensor_type;location;lat;lon;timestamp;pressure;altitude;pressure_sealevel;temperature;humidity
64827;BME280;51265;53.972;12.286;2023-09-30T00:02:37;101213.88;;;12.21;100.00
64827;BME280;51265;53.972;12.286;2023-09-30T00:05:33;101214.81;;;12.12;100.00
64827;BME280;51265;53.972;12.286;2023-09-30T00:08:01;101216.47;;;12.13;100.00
64827;BME280;51265;53.972;12.286;2023-09-30T00:10:51;101219.22;;;12.13;100.00
64827;BME280;51265;53.972;12.286;2023-09-30T00:13:42;101209.91;;;12.09;100.00
64827;BME280;51265;53.972;12.286;2023-09-30T00:16:32;101219.28;;;12.08;100.00
64827;BME280;51265;53.972;12.286;2023-09-30T00:19:11;101225.09;;;12.06;100.00
64827;BME280;51265;53.972;12.286;2023-09-30T00:21:44;101227.88;;;12.06;100.00
64827;BME280;51265;53.972;12.286;2023-09-30T00:24:24;101229.56;;;12.02;100.00
64827;BME280;51265;53.972;12.286;2023-09-30T00:27:05;101232.09;;;11.99;100.00
64827;BME280;51265;53.972;12.286;2023-09-30T00:29:46;101242.63;;;11.96;100.00
64827;BME280;51265;53.972;12.286;2023-09-30T00:32:34;101238.78;;;11.92;100.00
64827;BME280;51265;53.972;12.286;2023-09-30T00:35:08;101239.38;;;11.89;100.00
64827;BME280;51265;53.972;12.286;2023-09-30T00:37:43;101241.09;;;11.80;100.00
64827;BME280;51265;53.972;12.286;2023-09-30T00:40:23;101237.84;;;11.73;100.00
64827;BME280;51265;53.972;12.286;2023-09-30T00:43:20;101242.84;;;11.71;100.00
64827;BME280;51265;53.972;12.286;2023-09-30T00:46:34;101246.25;;;11.63;100.00
64827;BME280;51265;53.972;12.286;2023-09-30T00:49:35;101251.13;;;11.71;100.00
64827;BME280;51265;53.972;12.286;2023-09-30T00:52:45;101254.97;;;11.75;100.00
64827;BME280;51265;53.972;12.286;2023-09-30T00:55:38;101258.28;;;11.72;100.00
64827;BME280;51265;53.972;12.286;2023-09-30T00:58:25;101247.31;;;11.67;100.00
64827;BME280;51265;53.972;12.286;2023-09-30T01:01:25;101252.34;;;11.60;100.00
64827;BME280;51265;53.972;12.286;2023-09-30T01:04:13;101251.84;;;11.53;100.00
64827;BME280;51265;53.972;12.286;2023-09-30T01:06:49;101262.41;;;11.45;100.00
64827;BME280;51265;53.972;12.286;2023-09-30T01:09:36;101264.63;;;11.43;100.00
64827;BME280;51265;53.972;12.286;2023-09-30T01:12:17;101271.31;;;11.37;100.00
64827;BME280;51265;53.972;12.286;2023-09-30T01:14:59;101266.66;;;11.28;100.00
64827;BME280;51265;53.972;12.286;2023-09-30T01:17:50;101270.84;;;11.20;100.00
64827;BME280;51265;53.972;12.286;2023-09-30T01:20:23;101275.34;;;11.11;100.00
64827;BME280;51265;53.972;12.286;2023-09-30T01:22:58;101284.78;;;11.05;100.00
64827;BME280;51265;53.972;12.286;2023-09-30T01:25:37;101294.16;;;10.98;100.00
64827;BME280;51265;53.972;12.286;2023-09-30T01:28:29;101301.91;;;10.96;100.00
64827;BME280;51265;53.972;12.286;2023-09-30T01:31:14;101304.16;;;10.89;100.00
64827;BME280;51265;53.972;12.286;2023-09-30T01:33:52;101308.88;;;10.84;100.00
64827;BME280;51265;53.972;12.286;2023-09-30T01:36:59;101308.06;;;10.83;100.00
64827;BME280;51265;53.972;12.286;2023-09-30T01:39:44;101319.09;;;10.78;100.00
64827;BME280;51265;53.972;12.286;2023-09-30T01:42:32;101317.69;;;10.81;100.00
64827;BME280;51265;53.972;12.286;2023-09-30T01:45:11;101333.41;;;10.80;100.00
64827;BME280;51265;53.972;12.286;2023-09-30T01:47:49;101337.53;;;10.83;100.00
64827;BME280;51265;53.972;12.286;2023-09-30T01:50:29;101334.50;;;10.84;100.00
64827;BME280;51265;53.972;12.286;2023-09-30T01:53:09;101334.16;;;10.91;100.00
64827;BME280;51265;53.972;12.286;2023-09-30T01:55:57;101336.63;;;10.97;100.00
64827;BME280;51265;53.972;12.286;2023-09-30T01:58:38;101340.47;;;11.02;100.00
64827;BME280;51265;53.972;12.286;2023-09-30T02:01:22;101347.63;;;11.08;100.00
64827;BME280;51265;53.972;12.286;2023-09-30T02:04:10;101343.75;;;11.09;100.00
64827;BME280;51265;53.972;12.286;2023-09-30T02:06:45;101345.91;;;11.12;100.00
64827;BME280;51265;53.972;12.286;2023-09-30T02:09:24;101355.28;;;11.11;100.00
64827;BME280;51265;53.972;12.286;2023-09-30T02:12:12;101359.69;;;11.12;100.00
64827;BME280;51265;53.972;12.286;2023-09-30T02:14:46;101356.38;;;11.15;100.00
64827;BME280;51265;53.972;12.286;2023-09-30T02:17:22;101363.00;;;11.14;100.00
64827;BME280;51265;53.972;12.286;2023-09-30T02:19:57;101368.56;;;11.09;100.00
64827;BME280;51265;53.972;12.286;2023-09-30T02:22:43;101363.84;;;11.09;100.00
64827;BME280;51265;53.972;12.286;2023-09-30T02:25:25;101365.81;;;11.04;100.00
64827;BME280;51265;53.972;12.286;2023-09-30T02:28:10;101365.81;;;10.98;100.00
64827;BME280;51265;53.972;12.286;2023-09-30T02:30:47;101366.41;;;10.90;100.00
64827;BME280;51265;53.972;12.286;2023-09-30T02:33:28;101369.19;;;10.90;100.00
64827;BME280;51265;53.972;12.286;2023-09-30T02:35:59;101363.13;;;10.88;100.00
64827;BME280;51265;53.972;12.286;2023-09-30T02:38:29;101361.50;;;10.87;100.00
64827;BME280;51265;53.972;12.286;2023-09-30T02:40:55;101375.84;;;10.84;100.00
64827;BME280;51265;53.972;12.286;2023-09-30T02:43:22;101380.22;;;10.85;100.00
64827;BME280;51265;53.972;12.286;2023-09-30T02:45:48;101379.97;;;10.82;100.00
64827;BME280;51265;53.972;12.286;2023-09-30T02:48:15;101380.25;;;10.80;100.00
64827;BME280;51265;53.972;12.286;2023-09-30T02:50:44;101376.41;;;10.76;100.00
64827;BME280;51265;53.972;12.286;2023-09-30T02:53:11;101376.44;;;10.71;100.00
64827;BME280;51265;53.972;12.286;2023-09-30T02:55:39;101375.06;;;10.68;100.00
64827;BME280;51265;53.972;12.286;2023-09-30T02:58:06;101379.22;;;10.66;100.00
64827;BME280;51265;53.972;12.286;2023-09-30T03:00:35;101374.25;;;10.68;100.00
64827;BME280;51265;53.972;12.286;2023-09-30T03:03:03;101372.59;;;10.67;100.00
64827;BME280;51265;53.972;12.286;2023-09-30T03:05:30;101378.09;;;10.67;100.00
64827;BME280;51265;53.972;12.286;2023-09-30T03:08:00;101383.06;;;10.65;100.00
64827;BME280;51265;53.972;12.286;2023-09-30T03:10:26;101375.38;;;10.62;100.00
64827;BME280;51265;53.972;12.286;2023-09-30T03:12:53;101386.94;;;10.59;100.00
64827;BME280;51265;53.972;12.286;2023-09-30T03:15:20;101378.72;;;10.54;100.00
64827;BME280;51265;53.972;12.286;2023-09-30T03:17:46;101386.94;;;10.59;100.00
64827;BME280;51265;53.972;12.286;2023-09-30T03:20:14;101394.13;;;10.55;100.00
64827;BME280;51265;53.972;12.286;2023-09-30T03:22:45;101400.75;;;10.54;100.00
64827;BME280;51265;53.972;12.286;2023-09-30T03:25:16;101405.97;;;10.50;100.00
64827;BME280;51265;53.972;12.286;2023-09-30T03:27:44;101405.41;;;10.48;100.00
64827;BME280;51265;53.972;12.286;2023-09-30T03:30:13;101409.00;;;10.48;100.00
64827;BME280;51265;53.972;12.286;2023-09-30T03:32:40;101409.81;;;10.49;100.00
64827;BME280;51265;53.972;12.286;2023-09-30T03:35:07;101404.59;;;10.47;100.00
64827;BME280;51265;53.972;12.286;2023-09-30T03:37:33;101406.25;;;10.43;100.00
64827;BME280;51265;53.972;12.286;2023-09-30T03:40:00;101417.00;;;10.40;100.00
64827;BME280;51265;53.972;12.286;2023-09-30T03:42:38;101411.50;;;10.40;100.00
64827;BME280;51265;53.972;12.286;2023-09-30T03:45:06;101410.69;;;10.39;100.00
64827;BME280;51265;53.972;12.286;2023-09-30T03:47:39;101417.03;;;10.35;100.00
64827;BME280;51265;53.972;12.286;2023-09-30T03:50:06;101417.56;;;10.32;100.00
64827;BME280;51265;53.972;12.286;2023-09-30T03:52:39;101421.13;;;10.32;100.00
64827;BME280;51265;53.972;12.286;2023-09-30T03:55:05;101424.72;;;10.28;100.00
64827;BME280;51265;53.972;12.286;2023-09-30T03:57:32;101428.28;;;10.23;100.00
64827;BME280;51265;53.972;12.286;2023-09-30T04:00:00;101432.16;;;10.22;100.00
64827;BME280;51265;53.972;12.286;2023-09-30T04:02:27;101431.31;;;10.21;100.00
64827;BME280;51265;53.972;12.286;2023-09-30T04:04:54;101436.28;;;10.19;100.00
64827;BME280;51265;53.972;12.286;2023-09-30T04:07:21;101433.81;;;10.18;100.00
64827;BME280;51265;53.972;12.286;2023-09-30T04:09:49;101431.59;;;10.15;100.00
64827;BME280;51265;53.972;12.286;2023-09-30T04:12:15;101432.16;;;10.12;100.00
64827;BME280;51265;53.972;12.286;2023-09-30T04:14:41;101428.03;;;10.09;100.00
64827;BME280;51265;53.972;12.286;2023-09-30T04:17:07;101427.22;;;10.09;100.00
64827;BME280;51265;53.972;12.286;2023-09-30T04:19:35;101436.56;;;10.03;100.00
64827;BME280;51265;53.972;12.286;2023-09-30T04:22:01;101434.09;;;10.01;100.00
64827;BME280;51265;53.972;12.286;2023-09-30T04:24:27;101428.31;;;9.97;100.00
64827;BME280;51265;53.972;12.286;2023-09-30T04:26:55;101425.81;;;10.01;100.00
64827;BME280;51265;53.972;12.286;2023-09-30T04:29:28;101426.09;;;9.94;100.00
64827;BME280;51265;53.972;12.286;2023-09-30T04:31:56;101432.69;;;9.93;100.00
64827;BME280;51265;53.972;12.286;2023-09-30T04:34:22;101432.97;;;10.02;100.00
64827;BME280;51265;53.972;12.286;2023-09-30T04:36:50;101439.06;;;9.99;100.00
64827;BME280;51265;53.972;12.286;2023-09-30T04:39:16;101440.41;;;9.96;100.00
64827;BME280;51265;53.972;12.286;2023-09-30T04:41:42;101439.84;;;9.94;100.00
64827;BME280;51265;53.972;12.286;2023-09-30T04:44:08;101445.91;;;9.96;100.00
64827;BME280;51265;53.972;12.286;2023-09-30T04:46:37;101449.22;;;9.98;100.00
64827;BME280;51265;53.972;12.286;2023-09-30T04:49:07;101462.44;;;9.96;100.00
64827;BME280;51265;53.972;12.286;2023-09-30T04:51:33;101469.59;;;9.97;100.00
64827;BME280;51265;53.972;12.286;2023-09-30T04:54:00;101470.69;;;10.02;100.00
64827;BME280;51265;53.972;12.286;2023-09-30T04:56:27;101467.41;;;10.00;100.00
64827;BME280;51265;53.972;12.286;2023-09-30T04:58:53;101479.50;;;10.04;100.00
64827;BME280;51265;53.972;12.286;2023-09-30T05:01:20;101486.13;;;10.08;100.00
64827;BME280;51265;53.972;12.286;2023-09-30T05:03:46;101490.50;;;10.09;100.00
64827;BME280;51265;53.972;12.286;2023-09-30T05:06:15;101487.75;;;10.09;100.00
64827;BME280;51265;53.972;12.286;2023-09-30T05:08:42;101483.34;;;10.13;100.00
64827;BME280;51265;53.972;12.286;2023-09-30T05:11:08;101497.94;;;10.08;100.00
64827;BME280;51265;53.972;12.286;2023-09-30T05:13:34;101502.88;;;10.11;100.00
64827;BME280;51265;53.972;12.286;2023-09-30T05:16:00;101500.97;;;10.17;100.00
64827;BME280;51265;53.972;12.286;2023-09-30T05:18:27;101508.66;;;10.15;100.00
64827;BME280;51265;53.972;12.286;2023-09-30T05:20:53;101503.16;;;10.15;100.00
64827;BME280;51265;53.972;12.286;2023-09-30T05:23:19;101518.03;;;10.24;100.00
64827;BME280;51265;53.972;12.286;2023-09-30T05:25:45;101502.41;;;10.25;100.00
64827;BME280;51265;53.972;12.286;2023-09-30T05:28:12;101506.47;;;10.22;100.00
64827;BME280;51265;53.972;12.286;2023-09-30T05:30:39;101504.28;;;10.19;100.00
64827;BME280;51265;53.972;12.286;2023-09-30T05:33:07;101513.63;;;10.18;100.00
64827;BME280;51265;53.972;12.286;2023-09-30T05:35:33;101516.38;;;10.18;100.00
64827;BME280;51265;53.972;12.286;2023-09-30T05:37:59;101518.31;;;10.22;100.00
64827;BME280;51265;53.972;12.286;2023-09-30T05:40:25;101529.63;;;10.21;100.00
64827;BME280;51265;53.972;12.286;2023-09-30T05:42:53;101534.53;;;10.24;100.00
64827;BME280;51265;53.972;12.286;2023-09-30T05:45:21;101533.50;;;10.30;100.00
64827;BME280;51265;53.972;12.286;2023-09-30T05:47:49;101534.59;;;10.34;100.00
64827;BME280;51265;53.972;12.286;2023-09-30T05:50:18;101534.59;;;10.39;100.00
64827;BME280;51265;53.972;12.286;2023-09-30T05:52:54;101541.19;;;10.48;100.00
64827;BME280;51265;53.972;12.286;2023-09-30T05:55:21;101542.59;;;10.51;100.00
64827;BME280;51265;53.972;12.286;2023-09-30T05:57:48;101543.41;;;10.57;100.00
64827;BME280;51265;53.972;12.286;2023-09-30T06:00:20;101540.91;;;10.65;100.00
64827;BME280;51265;53.972;12.286;2023-09-30T06:02:49;101540.09;;;10.75;100.00
64827;BME280;51265;53.972;12.286;2023-09-30T06:05:17;101545.03;;;10.88;100.00
64827;BME280;51265;53.972;12.286;2023-09-30T06:07:50;101544.16;;;10.98;100.00
64827;BME280;51265;53.972;12.286;2023-09-30T06:10:17;101552.13;;;11.10;100.00
64827;BME280;51265;53.972;12.286;2023-09-30T06:12:51;101555.72;;;11.20;100.00
64827;BME280;51265;53.972;12.286;2023-09-30T06:15:24;101553.78;;;11.21;100.00
64827;BME280;51265;53.972;12.286;2023-09-30T06:17:57;101549.59;;;11.34;100.00
64827;BME280;51265;53.972;12.286;2023-09-30T06:20:27;101554.78;;;11.45;100.00
64827;BME280;51265;53.972;12.286;2023-09-30T06:22:56;101552.03;;;11.45;100.00
64827;BME280;51265;53.972;12.286;2023-09-30T06:25:23;101555.03;;;11.54;100.00
64827;BME280;51265;53.972;12.286;2023-09-30T06:27:54;101546.44;;;11.61;100.00
64827;BME280;51265;53.972;12.286;2023-09-30T06:30:23;101557.44;;;11.66;100.00
64827;BME280;51265;53.972;12.286;2023-09-30T06:32:56;101554.69;;;11.71;100.00
64827;BME280;51265;53.972;12.286;2023-09-30T06:35:23;101555.25;;;11.63;100.00
64827;BME280;51265;53.972;12.286;2023-09-30T06:37:49;101556.91;;;11.64;100.00
64827;BME280;51265;53.972;12.286;2023-09-30T06:40:16;101559.59;;;11.74;100.00
64827;BME280;51265;53.972;12.286;2023-09-30T06:42:42;101556.28;;;11.77;100.00
64827;BME280;51265;53.972;12.286;2023-09-30T06:45:08;101557.38;;;11.81;100.00
64827;BME280;51265;53.972;12.286;2023-09-30T06:47:36;101555.94;;;11.94;100.00
64827;BME280;51265;53.972;12.286;2023-09-30T06:50:04;101554.53;;;12.02;100.00
64827;BME280;51265;53.972;12.286;2023-09-30T06:52:34;101553.97;;;12.05;100.00
64827;BME280;51265;53.972;12.286;2023-09-30T06:55:02;101555.72;;;12.25;100.00
64827;BME280;51265;53.972;12.286;2023-09-30T06:57:34;101542.47;;;12.27;100.00
64827;BME280;51265;53.972;12.286;2023-09-30T07:00:00;101546.56;;;12.34;100.00
64827;BME280;51265;53.972;12.286;2023-09-30T07:02:26;101557.66;;;12.24;100.00
64827;BME280;51265;53.972;12.286;2023-09-30T07:04:52;101554.91;;;12.24;100.00
64827;BME280;51265;53.972;12.286;2023-09-30T07:07:19;101547.75;;;12.23;100.00
64827;BME280;51265;53.972;12.286;2023-09-30T07:09:45;101561.50;;;12.28;100.00
64827;BME280;51265;53.972;12.286;2023-09-30T07:12:11;101563.19;;;12.29;100.00
64827;BME280;51265;53.972;12.286;2023-09-30T07:14:38;101560.34;;;12.39;100.00
64827;BME280;51265;53.972;12.286;2023-09-30T07:17:04;101554.84;;;12.34;100.00
64827;BME280;51265;53.972;12.286;2023-09-30T07:19:31;101560.84;;;12.41;100.00
64827;BME280;51265;53.972;12.286;2023-09-30T07:21:57;101559.72;;;12.48;100.00
64827;BME280;51265;53.972;12.286;2023-09-30T07:24:23;101565.34;;;12.37;100.00
64827;BME280;51265;53.972;12.286;2023-09-30T07:26:49;101578.50;;;12.51;100.00
64827;BME280;51265;53.972;12.286;2023-09-30T07:29:15;101571.84;;;12.52;100.00
64827;BME280;51265;53.972;12.286;2023-09-30T07:31:41;101580.59;;;12.64;100.00
64827;BME280;51265;53.972;12.286;2023-09-30T07:34:08;101571.13;;;12.70;100.00
64827;BME280;51265;53.972;12.286;2023-09-30T07:36:48;101574.94;;;12.74;100.00
64827;BME280;51265;53.972;12.286;2023-09-30T07:39:14;101572.25;;;12.69;100.00
64827;BME280;51265;53.972;12.286;2023-09-30T07:41:40;101567.28;;;12.66;100.00
64827;BME280;51265;53.972;12.286;2023-09-30T07:44:06;101569.41;;;12.79;100.00
64827;BME280;51265;53.972;12.286;2023-09-30T07:46:35;101559.34;;;12.88;100.00
64827;BME280;51265;53.972;12.286;2023-09-30T07:49:01;101564.59;;;12.90;100.00
64827;BME280;51265;53.972;12.286;2023-09-30T07:51:29;101562.56;;;13.01;100.00
64827;BME280;51265;53.972;12.286;2023-09-30T07:53:58;101571.84;;;13.10;100.00
64827;BME280;51265;53.972;12.286;2023-09-30T07:56:24;101573.97;;;13.18;100.00
64827;BME280;51265;53.972;12.286;2023-09-30T07:58:50;101566.59;;;13.37;100.00
64827;BME280;51265;53.972;12.286;2023-09-30T08:01:17;101567.16;;;13.58;100.00
64827;BME280;51265;53.972;12.286;2023-09-30T08:03:44;101560.34;;;13.51;100.00
64827;BME280;51265;53.972;12.286;2023-09-30T08:06:10;101565.47;;;13.81;100.00
64827;BME280;51265;53.972;12.286;2023-09-30T08:08:36;101570.66;;;14.07;100.00
64827;BME280;51265;53.972;12.286;2023-09-30T08:11:02;101565.31;;;14.29;100.00
64827;BME280;51265;53.972;12.286;2023-09-30T08:13:28;101568.47;;;14.41;100.00
64827;BME280;51265;53.972;12.286;2023-09-30T08:15:59;101551.16;;;14.68;100.00
64827;BME280;51265;53.972;12.286;2023-09-30T08:18:25;101548.59;;;14.72;100.00
64827;BME280;51265;53.972;12.286;2023-09-30T08:20:51;101543.81;;;14.59;100.00
64827;BME280;51265;53.972;12.286;2023-09-30T08:23:17;101533.28;;;14.23;100.00
64827;BME280;51265;53.972;12.286;2023-09-30T08:25:50;101548.34;;;14.36;100.00
64827;BME280;51265;53.972;12.286;2023-09-30T08:28:16;101550.69;;;14.10;100.00
64827;BME280;51265;53.972;12.286;2023-09-30T08:30:43;101541.47;;;13.95;100.00
64827;BME280;51265;53.972;12.286;2023-09-30T08:33:09;101542.59;;;13.94;100.00
64827;BME280;51265;53.972;12.286;2023-09-30T08:35:36;101550.75;;;13.86;100.00
64827;BME280;51265;53.972;12.286;2023-09-30T08:38:03;101554.19;;;13.78;100.00
64827;BME280;51265;53.972;12.286;2023-09-30T08:40:30;101555.91;;;13.74;100.00
64827;BME280;51265;53.972;12.286;2023-09-30T08:42:57;101550.00;;;13.80;100.00
64827;BME280;51265;53.972;12.286;2023-09-30T08:45:24;101553.50;;;13.67;100.00
64827;BME280;51265;53.972;12.286;2023-09-30T08:47:50;101553.34;;;13.77;100.00
64827;BME280;51265;53.972;12.286;2023-09-30T08:50:17;101553.06;;;13.79;100.00
64827;BME280;51265;53.972;12.286;2023-09-30T08:52:44;101559.63;;;13.64;100.00
64827;BME280;51265;53.972;12.286;2023-09-30T08:55:12;101563.63;;;13.77;100.00
64827;BME280;51265;53.972;12.286;2023-09-30T08:57:40;101551.94;;;13.80;100.00
64827;BME280;51265;53.972;12.286;2023-09-30T09:00:13;101548.88;;;13.81;100.00
64827;BME280;51265;53.972;12.286;2023-09-30T09:02:40;101552.78;;;13.80;100.00
64827;BME280;51265;53.972;12.286;2023-09-30T09:05:06;101550.31;;;13.98;100.00
64827;BME280;51265;53.972;12.286;2023-09-30T09:07:34;101559.88;;;14.24;100.00
64827;BME280;51265;53.972;12.286;2023-09-30T09:12:36;101550.88;;;14.32;100.00
64827;BME280;51265;53.972;12.286;2023-09-30T09:15:07;101546.47;;;14.31;100.00
64827;BME280;51265;53.972;12.286;2023-09-30T09:17:44;101549.22;;;14.50;100.00
64827;BME280;51265;53.972;12.286;2023-09-30T09:20:15;101535.94;;;14.66;100.00
64827;BME280;51265;53.972;12.286;2023-09-30T09:23:00;101539.91;;;14.92;100.00
64827;BME280;51265;53.972;12.286;2023-09-30T09:25:26;101549.38;;;15.05;100.00
64827;BME280;51265;53.972;12.286;2023-09-30T09:27:53;101532.72;;;15.05;100.00
64827;BME280;51265;53.972;12.286;2023-09-30T09:30:24;101538.06;;;15.15;100.00
64827;BME280;51265;53.972;12.286;2023-09-30T09:33:01;101535.22;;;15.34;100.00
64827;BME280;51265;53.972;12.286;2023-09-30T09:35:28;101536.00;;;15.49;100.00
64827;BME280;51265;53.972;12.286;2023-09-30T09:38:06;101515.66;;;15.39;100.00
64827;BME280;51265;53.972;12.286;2023-09-30T09:40:33;101519.75;;;15.56;100.00
64827;BME280;51265;53.972;12.286;2023-09-30T09:43:01;101503.22;;;15.37;100.00
64827;BME280;51265;53.972;12.286;2023-09-30T09:45:34;101511.53;;;15.51;100.00
64827;BME280;51265;53.972;12.286;2023-09-30T09:48:01;101507.00;;;15.55;100.00
64827;BME280;51265;53.972;12.286;2023-09-30T09:50:27;101507.00;;;15.55;100.00
64827;BME280;51265;53.972;12.286;2023-09-30T09:52:54;101505.97;;;15.51;100.00
64827;BME280;51265;53.972;12.286;2023-09-30T09:55:26;101511.00;;;15.76;100.00
64827;BME280;51265;53.972;12.286;2023-09-30T09:57:53;101497.91;;;15.90;100.00
64827;BME280;51265;53.972;12.286;2023-09-30T10:00:24;101500.41;;;15.78;99.72
64827;BME280;51265;53.972;12.286;2023-09-30T10:02:51;101491.28;;;16.00;97.86
64827;BME280;51265;53.972;12.286;2023-09-30T10:05:19;101482.63;;;16.02;96.71
64827;BME280;51265;53.972;12.286;2023-09-30T10:07:53;101481.69;;;16.29;96.49
64827;BME280;51265;53.972;12.286;2023-09-30T10:10:22;101466.09;;;16.19;95.11
64827;BME280;51265;53.972;12.286;2023-09-30T10:12:49;101477.03;;;16.47;94.96
64827;BME280;51265;53.972;12.286;2023-09-30T10:18:04;101466.81;;;16.56;93.23
64827;BME280;51265;53.972;12.286;2023-09-30T10:20:34;101465.56;;;16.39;93.05
64827;BME280;51265;53.972;12.286;2023-09-30T10:23:23;101453.44;;;16.35;92.39
64827;BME280;51265;53.972;12.286;2023-09-30T10:25:55;101447.47;;;16.19;90.12
64827;BME280;51265;53.972;12.286;2023-09-30T10:28:42;101435.09;;;16.34;88.81
64827;BME280;51265;53.972;12.286;2023-09-30T10:31:20;101442.50;;;16.70;88.92
64827;BME280;51265;53.972;12.286;2023-09-30T10:36:29;101402.72;;;16.61;85.54
64827;BME280;51265;53.972;12.286;2023-09-30T10:38:56;101401.13;;;16.37;85.17
64827;BME280;51265;53.972;12.286;2023-09-30T10:44:32;101422.09;;;16.43;86.14
64827;BME280;51265;53.972;12.286;2023-09-30T10:46:59;101408.53;;;16.73;85.00
64827;BME280;51265;53.972;12.286;2023-09-30T10:51:53;101391.88;;;16.59;83.12
64827;BME280;51265;53.972;12.286;2023-09-30T10:54:24;101387.31;;;16.63;82.27
64827;BME280;51265;53.972;12.286;2023-09-30T10:56:51;101387.31;;;16.63;82.02
64827;BME280;51265;53.972;12.286;2023-09-30T10:59:19;101393.13;;;16.76;81.96
64827;BME280;51265;53.972;12.286;2023-09-30T11:01:45;101406.84;;;17.21;81.73
64827;BME280;51265;53.972;12.286;2023-09-30T11:04:12;101384.28;;;17.39;80.20
64827;BME280;51265;53.972;12.286;2023-09-30T11:06:42;101366.59;;;17.44;78.66
64827;BME280;51265;53.972;12.286;2023-09-30T11:09:08;101342.53;;;17.31;75.87
64827;BME280;51265;53.972;12.286;2023-09-30T11:11:40;101339.41;;;17.24;75.68
64827;BME280;51265;53.972;12.286;2023-09-30T11:14:26;101362.94;;;17.00;77.38
64827;BME280;51265;53.972;12.286;2023-09-30T11:16:55;101368.84;;;17.07;77.43
64827;BME280;51265;53.972;12.286;2023-09-30T11:19:23;101347.00;;;16.83;76.72
64827;BME280;51265;53.972;12.286;2023-09-30T11:21:51;101341.38;;;16.66;76.89
64827;BME280;51265;53.972;12.286;2023-09-30T11:24:18;101361.19;;;16.64;77.58
64827;BME280;51265;53.972;12.286;2023-09-30T11:26:45;101345.94;;;16.62;77.13
64827;BME280;51265;53.972;12.286;2023-09-30T11:29:15;101372.94;;;17.10;77.25
64827;BME280;51265;53.972;12.286;2023-09-30T11:31:48;101353.44;;;17.01;76.67
64827;BME280;51265;53.972;12.286;2023-09-30T11:34:17;101354.47;;;17.14;75.57
64827;BME280;51265;53.972;12.286;2023-09-30T11:36:52;101361.66;;;17.58;75.06
64827;BME280;51265;53.972;12.286;2023-09-30T11:39:23;101353.63;;;17.91;74.45
64827;BME280;51265;53.972;12.286;2023-09-30T11:41:50;101338.56;;;17.84;73.35
64827;BME280;51265;53.972;12.286;2023-09-30T11:44:16;101330.63;;;18.12;73.12
64827;BME280;51265;53.972;12.286;2023-09-30T11:47:00;101318.91;;;17.80;72.41
64827;BME280;51265;53.972;12.286;2023-09-30T11:49:32;101327.78;;;17.56;73.34
64827;BME280;51265;53.972;12.286;2023-09-30T11:52:03;101356.44;;;17.57;74.41
64827;BME280;51265;53.972;12.286;2023-09-30T11:54:31;101340.38;;;17.28;74.24
64827;BME280;51265;53.972;12.286;2023-09-30T11:57:00;101351.19;;;17.29;74.59
64827;BME280;51265;53.972;12.286;2023-09-30T11:59:26;101347.75;;;17.15;74.21
64827;BME280;51265;53.972;12.286;2023-09-30T12:01:53;101328.91;;;17.12;73.19
64827;BME280;51265;53.972;12.286;2023-09-30T12:04:20;101349.38;;;17.16;73.55
64827;BME280;51265;53.972;12.286;2023-09-30T12:06:48;101355.25;;;17.06;73.89
64827;BME280;51265;53.972;12.286;2023-09-30T12:09:15;101359.88;;;17.19;73.74
64827;BME280;51265;53.972;12.286;2023-09-30T12:11:43;101351.16;;;17.03;73.80
64827;BME280;51265;53.972;12.286;2023-09-30T12:14:12;101363.25;;;16.90;74.39
64827;BME280;51265;53.972;12.286;2023-09-30T12:16:39;101364.63;;;16.70;75.03
64827;BME280;51265;53.972;12.286;2023-09-30T12:19:05;101380.16;;;17.11;75.12
64827;BME280;51265;53.972;12.286;2023-09-30T12:21:32;101383.13;;;17.40;74.40
64827;BME280;51265;53.972;12.286;2023-09-30T12:24:03;101359.22;;;17.57;73.16
64827;BME280;51265;53.972;12.286;2023-09-30T12:26:30;101345.78;;;17.76;72.38
64827;BME280;51265;53.972;12.286;2023-09-30T12:28:57;101348.41;;;17.81;72.05
64827;BME280;51265;53.972;12.286;2023-09-30T12:31:23;101335.94;;;17.70;71.28
64827;BME280;51265;53.972;12.286;2023-09-30T12:33:49;101346.28;;;17.61;71.99
64827;BME280;51265;53.972;12.286;2023-09-30T12:36:21;101352.31;;;17.80;71.94
64827;BME280;51265;53.972;12.286;2023-09-30T12:38:47;101339.19;;;18.07;71.24
64827;BME280;51265;53.972;12.286;2023-09-30T12:41:14;101321.09;;;18.13;70.09
64827;BME280;51265;53.972;12.286;2023-09-30T12:43:41;101331.00;;;18.02;70.42
64827;BME280;51265;53.972;12.286;2023-09-30T12:46:09;101325.09;;;17.95;70.41
64827;BME280;51265;53.972;12.286;2023-09-30T12:48:35;101319.25;;;17.79;69.96
64827;BME280;51265;53.972;12.286;2023-09-30T12:51:01;101306.09;;;17.71;69.12
64827;BME280;51265;53.972;12.286;2023-09-30T12:53:30;101327.56;;;17.87;69.25
64827;BME280;51265;53.972;12.286;2023-09-30T12:55:56;101319.06;;;17.75;69.65
64827;BME280;51265;53.972;12.286;2023-09-30T12:58:22;101319.25;;;17.44;70.32
64827;BME280;51265;53.972;12.286;2023-09-30T13:00:49;101329.59;;;17.35;71.04
64827;BME280;51265;53.972;12.286;2023-09-30T13:03:15;101352.00;;;17.38;71.45
64827;BME280;51265;53.972;12.286;2023-09-30T13:05:42;101366.75;;;17.48;71.28
64827;BME280;51265;53.972;12.286;2023-09-30T13:08:08;101360.50;;;17.51;70.80